sensor_id;sensor_type;location;lat;lon;timestamp;P1;durP1;ratioP1;P2;durP2;ratioP2
80776;SDS011;70169;51.262;6.336;2023-07-31T00:01:09;8.53;;;3.47;;
80776;SDS011;70169;51.262;6.336;2023-07-31T00:03:24;10.30;;;3.20;;
80776;SDS011;70169;51.262;6.336;2023-07-31T00:05:39;7.20;;;3.27;;
80776;SDS011;70169;51.262;6.336;2023-07-31T00:07:55;9.43;;;3.77;;
80776;SDS011;70169;51.262;6.336;2023-07-31T00:10:10;9.43;;;3.47;;
80776;SDS011;70169;51.262;6.336;2023-07-31T00:12:25;6.67;;;2.80;;
80776;SDS011;70169;51.262;6.336;2023-07-31T00:14:41;10.95;;;3.83;;
80776;SDS011;70169;51.262;6.336;2023-07-31T00:16:56;11.23;;;3.67;;
80776;SDS011;70169;51.262;6.336;2023-07-31T00:19:11;10.33;;;3.60;;
80776;SDS011;70169;51.262;6.336;2023-07-31T00:21:27;8.80;;;3.43;;
80776;SDS011;70169;51.262;6.336;2023-07-31T00:23:43;10.18;;;3.50;;
80776;SDS011;70169;51.262;6.336;2023-07-31T00:25:58;7.60;;;3.37;;
80776;SDS011;70169;51.262;6.336;2023-07-31T00:28:13;7.43;;;3.40;;
80776;SDS011;70169;51.262;6.336;2023-07-31T00:30:28;8.60;;;3.33;;
80776;SDS011;70169;51.262;6.336;2023-07-31T00:32:44;9.20;;;3.65;;
80776;SDS011;70169;51.262;6.336;2023-07-31T00:35:00;7.67;;;3.27;;
80776;SDS011;70169;51.262;6.336;2023-07-31T00:37:17;9.13;;;3.38;;
80776;SDS011;70169;51.262;6.336;2023-07-31T00:39:33;7.13;;;3.43;;
80776;SDS011;70169;51.262;6.336;2023-07-31T00:44:04;7.70;;;3.00;;
80776;SDS011;70169;51.262;6.336;2023-07-31T00:46:19;9.40;;;3.13;;
80776;SDS011;70169;51.262;6.336;2023-07-31T00:48:37;8.73;;;3.38;;
80776;SDS011;70169;51.262;6.336;2023-07-31T00:50:54;8.60;;;3.53;;
80776;SDS011;70169;51.262;6.336;2023-07-31T00:53:09;9.07;;;3.00;;
80776;SDS011;70169;51.262;6.336;2023-07-31T00:55:25;10.43;;;3.93;;
80776;SDS011;70169;51.262;6.336;2023-07-31T00:57:41;9.00;;;2.83;;
80776;SDS011;70169;51.262;6.336;2023-07-31T00:59:56;9.00;;;3.30;;
80776;SDS011;70169;51.262;6.336;2023-07-31T01:02:12;7.77;;;3.27;;
80776;SDS011;70169;51.262;6.336;2023-07-31T01:04:27;7.95;;;3.25;;
80776;SDS011;70169;51.262;6.336;2023-07-31T01:11:48;7.97;;;3.55;;
80776;SDS011;70169;51.262;6.336;2023-07-31T01:14:07;8.30;;;3.20;;
80776;SDS011;70169;51.262;6.336;2023-07-31T01:16:23;10.33;;;3.17;;
80776;SDS011;70169;51.262;6.336;2023-07-31T01:18:40;10.35;;;3.67;;
80776;SDS011;70169;51.262;6.336;2023-07-31T01:20:57;14.20;;;3.57;;
80776;SDS011;70169;51.262;6.336;2023-07-31T01:26:05;9.55;;;3.30;;
80776;SDS011;70169;51.262;6.336;2023-07-31T01:28:51;12.50;;;4.20;;
80776;SDS011;70169;51.262;6.336;2023-07-31T01:31:18;8.60;;;3.22;;
80776;SDS011;70169;51.262;6.336;2023-07-31T01:33:37;7.45;;;3.15;;
80776;SDS011;70169;51.262;6.336;2023-07-31T01:35:53;11.55;;;3.85;;
80776;SDS011;70169;51.262;6.336;2023-07-31T01:38:09;10.60;;;3.47;;
80776;SDS011;70169;51.262;6.336;2023-07-31T01:40:24;12.80;;;3.45;;
80776;SDS011;70169;51.262;6.336;2023-07-31T01:42:40;8.43;;;3.87;;
80776;SDS011;70169;51.262;6.336;2023-07-31T01:44:55;10.20;;;3.60;;
80776;SDS011;70169;51.262;6.336;2023-07-31T01:47:10;11.17;;;3.73;;
80776;SDS011;70169;51.262;6.336;2023-07-31T01:49:26;10.40;;;4.20;;
80776;SDS011;70169;51.262;6.336;2023-07-31T01:51:41;9.73;;;4.13;;
80776;SDS011;70169;51.262;6.336;2023-07-31T01:53:56;8.87;;;3.70;;
80776;SDS011;70169;51.262;6.336;2023-07-31T01:56:11;9.63;;;3.57;;
80776;SDS011;70169;51.262;6.336;2023-07-31T01:58:27;7.07;;;3.20;;
80776;SDS011;70169;51.262;6.336;2023-07-31T02:00:42;9.77;;;4.00;;
80776;SDS011;70169;51.262;6.336;2023-07-31T02:02:59;9.50;;;3.70;;
80776;SDS011;70169;51.262;6.336;2023-07-31T02:05:14;11.18;;;3.67;;
80776;SDS011;70169;51.262;6.336;2023-07-31T02:07:30;12.03;;;3.90;;
80776;SDS011;70169;51.262;6.336;2023-07-31T02:09:45;9.23;;;3.50;;
80776;SDS011;70169;51.262;6.336;2023-07-31T02:12:02;8.63;;;3.60;;
80776;SDS011;70169;51.262;6.336;2023-07-31T02:14:18;10.23;;;3.85;;
80776;SDS011;70169;51.262;6.336;2023-07-31T02:16:33;5.83;;;3.10;;
80776;SDS011;70169;51.262;6.336;2023-07-31T02:18:49;7.87;;;3.60;;
80776;SDS011;70169;51.262;6.336;2023-07-31T02:21:04;9.87;;;3.30;;
80776;SDS011;70169;51.262;6.336;2023-07-31T02:23:19;7.27;;;3.40;;
80776;SDS011;70169;51.262;6.336;2023-07-31T02:25:34;9.23;;;3.90;;
80776;SDS011;70169;51.262;6.336;2023-07-31T02:27:50;11.40;;;3.67;;
80776;SDS011;70169;51.262;6.336;2023-07-31T02:30:05;8.10;;;3.60;;
80776;SDS011;70169;51.262;6.336;2023-07-31T02:32:21;8.98;;;3.53;;
80776;SDS011;70169;51.262;6.336;2023-07-31T02:34:37;10.20;;;3.37;;
80776;SDS011;70169;51.262;6.336;2023-07-31T02:36:52;8.77;;;3.63;;
80776;SDS011;70169;51.262;6.336;2023-07-31T02:39:07;7.00;;;3.17;;
80776;SDS011;70169;51.262;6.336;2023-07-31T02:41:23;9.60;;;3.93;;
80776;SDS011;70169;51.262;6.336;2023-07-31T02:43:38;8.30;;;3.30;;
80776;SDS011;70169;51.262;6.336;2023-07-31T02:45:53;7.97;;;3.73;;
80776;SDS011;70169;51.262;6.336;2023-07-31T02:48:09;13.60;;;4.03;;
80776;SDS011;70169;51.262;6.336;2023-07-31T02:50:24;9.30;;;3.55;;
80776;SDS011;70169;51.262;6.336;2023-07-31T02:52:39;9.03;;;3.60;;
80776;SDS011;70169;51.262;6.336;2023-07-31T02:54:55;8.70;;;3.43;;
80776;SDS011;70169;51.262;6.336;2023-07-31T02:57:10;8.17;;;3.60;;
80776;SDS011;70169;51.262;6.336;2023-07-31T02:59:25;11.07;;;3.67;;
80776;SDS011;70169;51.262;6.336;2023-07-31T03:01:43;10.55;;;3.58;;
80776;SDS011;70169;51.262;6.336;2023-07-31T03:03:58;9.17;;;3.83;;
80776;SDS011;70169;51.262;6.336;2023-07-31T03:06:13;7.37;;;3.33;;
80776;SDS011;70169;51.262;6.336;2023-07-31T03:08:29;7.10;;;3.33;;
80776;SDS011;70169;51.262;6.336;2023-07-31T03:10:44;6.20;;;3.20;;
80776;SDS011;70169;51.262;6.336;2023-07-31T03:12:59;6.60;;;3.30;;
80776;SDS011;70169;51.262;6.336;2023-07-31T03:15:15;10.90;;;3.80;;
80776;SDS011;70169;51.262;6.336;2023-07-31T03:17:30;10.10;;;3.40;;
80776;SDS011;70169;51.262;6.336;2023-07-31T03:19:45;9.77;;;3.43;;
80776;SDS011;70169;51.262;6.336;2023-07-31T03:22:01;14.07;;;4.05;;
80776;SDS011;70169;51.262;6.336;2023-07-31T03:24:16;13.77;;;3.87;;
80776;SDS011;70169;51.262;6.336;2023-07-31T03:26:31;7.43;;;3.37;;
80776;SDS011;70169;51.262;6.336;2023-07-31T03:28:47;8.50;;;3.53;;
80776;SDS011;70169;51.262;6.336;2023-07-31T03:31:04;7.18;;;3.33;;
80776;SDS011;70169;51.262;6.336;2023-07-31T03:33:19;8.73;;;3.80;;
80776;SDS011;70169;51.262;6.336;2023-07-31T03:35:35;7.60;;;3.72;;
80776;SDS011;70169;51.262;6.336;2023-07-31T03:37:50;8.77;;;3.90;;
80776;SDS011;70169;51.262;6.336;2023-07-31T03:40:06;9.80;;;3.57;;
80776;SDS011;70169;51.262;6.336;2023-07-31T03:42:21;9.27;;;3.60;;
80776;SDS011;70169;51.262;6.336;2023-07-31T03:44:37;8.17;;;3.60;;
80776;SDS011;70169;51.262;6.336;2023-07-31T03:46:52;6.57;;;3.10;;
80776;SDS011;70169;51.262;6.336;2023-07-31T03:49:07;11.40;;;3.58;;
80776;SDS011;70169;51.262;6.336;2023-07-31T03:51:23;9.00;;;3.35;;
80776;SDS011;70169;51.262;6.336;2023-07-31T03:53:38;8.73;;;3.27;;
80776;SDS011;70169;51.262;6.336;2023-07-31T03:55:53;7.13;;;3.17;;
80776;SDS011;70169;51.262;6.336;2023-07-31T03:58:10;9.75;;;3.40;;
80776;SDS011;70169;51.262;6.336;2023-07-31T04:00:26;7.65;;;3.70;;
80776;SDS011;70169;51.262;6.336;2023-07-31T04:02:42;6.05;;;2.60;;
80776;SDS011;70169;51.262;6.336;2023-07-31T04:04:57;7.20;;;3.20;;
80776;SDS011;70169;51.262;6.336;2023-07-31T04:07:12;7.90;;;3.30;;
80776;SDS011;70169;51.262;6.336;2023-07-31T04:09:28;8.50;;;4.03;;
80776;SDS011;70169;51.262;6.336;2023-07-31T04:11:43;6.27;;;3.23;;
80776;SDS011;70169;51.262;6.336;2023-07-31T04:13:58;7.73;;;3.57;;
80776;SDS011;70169;51.262;6.336;2023-07-31T04:16:13;9.27;;;3.57;;
80776;SDS011;70169;51.262;6.336;2023-07-31T04:18:29;10.00;;;4.10;;
80776;SDS011;70169;51.262;6.336;2023-07-31T04:20:46;6.20;;;3.30;;
80776;SDS011;70169;51.262;6.336;2023-07-31T04:23:01;7.33;;;3.47;;
80776;SDS011;70169;51.262;6.336;2023-07-31T04:25:16;8.50;;;3.70;;
80776;SDS011;70169;51.262;6.336;2023-07-31T04:27:32;7.85;;;3.92;;
80776;SDS011;70169;51.262;6.336;2023-07-31T04:29:47;10.40;;;3.97;;
80776;SDS011;70169;51.262;6.336;2023-07-31T04:32:02;6.07;;;3.20;;
80776;SDS011;70169;51.262;6.336;2023-07-31T04:34:18;8.80;;;3.65;;
80776;SDS011;70169;51.262;6.336;2023-07-31T04:36:33;8.63;;;4.20;;
80776;SDS011;70169;51.262;6.336;2023-07-31T04:38:49;12.77;;;4.65;;
80776;SDS011;70169;51.262;6.336;2023-07-31T04:41:04;8.77;;;3.50;;
80776;SDS011;70169;51.262;6.336;2023-07-31T04:46:32;6.40;;;3.20;;
80776;SDS011;70169;51.262;6.336;2023-07-31T04:48:47;6.67;;;3.97;;
80776;SDS011;70169;51.262;6.336;2023-07-31T04:51:03;5.53;;;3.53;;
80776;SDS011;70169;51.262;6.336;2023-07-31T04:53:18;8.57;;;4.07;;
80776;SDS011;70169;51.262;6.336;2023-07-31T04:55:34;7.65;;;3.38;;
80776;SDS011;70169;51.262;6.336;2023-07-31T04:57:49;7.60;;;3.23;;
80776;SDS011;70169;51.262;6.336;2023-07-31T05:00:04;9.00;;;3.77;;
80776;SDS011;70169;51.262;6.336;2023-07-31T05:02:20;7.28;;;3.90;;
80776;SDS011;70169;51.262;6.336;2023-07-31T05:04:36;7.00;;;3.57;;
80776;SDS011;70169;51.262;6.336;2023-07-31T05:06:51;8.87;;;4.50;;
80776;SDS011;70169;51.262;6.336;2023-07-31T05:09:06;9.07;;;3.93;;
80776;SDS011;70169;51.262;6.336;2023-07-31T05:11:22;7.10;;;3.67;;
80776;SDS011;70169;51.262;6.336;2023-07-31T05:13:37;7.73;;;3.53;;
80776;SDS011;70169;51.262;6.336;2023-07-31T05:15:52;5.00;;;2.90;;
80776;SDS011;70169;51.262;6.336;2023-07-31T05:18:08;7.88;;;3.85;;
80776;SDS011;70169;51.262;6.336;2023-07-31T05:20:24;6.55;;;3.95;;
80776;SDS011;70169;51.262;6.336;2023-07-31T05:22:39;6.77;;;3.20;;
80776;SDS011;70169;51.262;6.336;2023-07-31T05:24:54;8.93;;;3.43;;
80776;SDS011;70169;51.262;6.336;2023-07-31T05:27:10;6.60;;;3.20;;
80776;SDS011;70169;51.262;6.336;2023-07-31T05:29:25;6.03;;;3.47;;
80776;SDS011;70169;51.262;6.336;2023-07-31T05:31:40;8.03;;;3.80;;
80776;SDS011;70169;51.262;6.336;2023-07-31T05:33:56;6.23;;;3.60;;
80776;SDS011;70169;51.262;6.336;2023-07-31T05:36:11;5.47;;;3.00;;
80776;SDS011;70169;51.262;6.336;2023-07-31T05:38:26;5.80;;;3.28;;
80776;SDS011;70169;51.262;6.336;2023-07-31T05:40:42;6.47;;;3.20;;
80776;SDS011;70169;51.262;6.336;2023-07-31T05:42:58;6.82;;;3.35;;
80776;SDS011;70169;51.262;6.336;2023-07-31T05:45:13;6.40;;;3.50;;
80776;SDS011;70169;51.262;6.336;2023-07-31T05:47:28;6.82;;;3.63;;
80776;SDS011;70169;51.262;6.336;2023-07-31T05:49:44;7.13;;;3.43;;
80776;SDS011;70169;51.262;6.336;2023-07-31T05:51:59;7.27;;;3.60;;
80776;SDS011;70169;51.262;6.336;2023-07-31T05:54:14;7.00;;;3.45;;
80776;SDS011;70169;51.262;6.336;2023-07-31T05:56:30;7.57;;;3.70;;
80776;SDS011;70169;51.262;6.336;2023-07-31T05:58:46;7.90;;;3.88;;
80776;SDS011;70169;51.262;6.336;2023-07-31T06:01:02;8.07;;;3.33;;
80776;SDS011;70169;51.262;6.336;2023-07-31T06:03:18;6.15;;;3.40;;
80776;SDS011;70169;51.262;6.336;2023-07-31T06:05:34;8.67;;;3.43;;
80776;SDS011;70169;51.262;6.336;2023-07-31T06:07:49;7.90;;;3.35;;
80776;SDS011;70169;51.262;6.336;2023-07-31T06:10:05;7.33;;;3.87;;
80776;SDS011;70169;51.262;6.336;2023-07-31T06:12:21;6.97;;;3.50;;
80776;SDS011;70169;51.262;6.336;2023-07-31T06:14:36;6.82;;;3.72;;
80776;SDS011;70169;51.262;6.336;2023-07-31T06:16:51;7.27;;;3.43;;
80776;SDS011;70169;51.262;6.336;2023-07-31T06:19:07;5.47;;;3.17;;
80776;SDS011;70169;51.262;6.336;2023-07-31T06:21:22;6.27;;;3.23;;
80776;SDS011;70169;51.262;6.336;2023-07-31T06:23:37;5.75;;;3.42;;
80776;SDS011;70169;51.262;6.336;2023-07-31T06:25:53;10.00;;;3.95;;
80776;SDS011;70169;51.262;6.336;2023-07-31T06:28:08;8.07;;;3.33;;
80776;SDS011;70169;51.262;6.336;2023-07-31T06:30:23;5.97;;;3.20;;
80776;SDS011;70169;51.262;6.336;2023-07-31T06:32:39;6.27;;;3.33;;
80776;SDS011;70169;51.262;6.336;2023-07-31T06:37:11;8.37;;;3.60;;
80776;SDS011;70169;51.262;6.336;2023-07-31T06:39:26;6.60;;;3.40;;
80776;SDS011;70169;51.262;6.336;2023-07-31T06:41:42;8.23;;;3.43;;
80776;SDS011;70169;51.262;6.336;2023-07-31T06:43:57;5.97;;;3.10;;
80776;SDS011;70169;51.262;6.336;2023-07-31T06:46:13;6.43;;;3.60;;
80776;SDS011;70169;51.262;6.336;2023-07-31T06:48:28;7.40;;;3.30;;
80776;SDS011;70169;51.262;6.336;2023-07-31T06:50:44;6.47;;;3.55;;
80776;SDS011;70169;51.262;6.336;2023-07-31T06:52:59;7.43;;;3.43;;
80776;SDS011;70169;51.262;6.336;2023-07-31T06:55:18;8.88;;;3.47;;
80776;SDS011;70169;51.262;6.336;2023-07-31T06:57:35;5.93;;;3.33;;
80776;SDS011;70169;51.262;6.336;2023-07-31T06:59:50;6.87;;;3.20;;
80776;SDS011;70169;51.262;6.336;2023-07-31T07:02:05;5.17;;;3.10;;
80776;SDS011;70169;51.262;6.336;2023-07-31T07:04:20;6.78;;;3.50;;
80776;SDS011;70169;51.262;6.336;2023-07-31T07:06:36;7.35;;;3.55;;
80776;SDS011;70169;51.262;6.336;2023-07-31T07:08:51;7.27;;;3.17;;
80776;SDS011;70169;51.262;6.336;2023-07-31T07:11:07;7.57;;;3.50;;
80776;SDS011;70169;51.262;6.336;2023-07-31T07:13:22;7.30;;;3.67;;
80776;SDS011;70169;51.262;6.336;2023-07-31T07:15:37;5.90;;;3.10;;
80776;SDS011;70169;51.262;6.336;2023-07-31T07:17:53;9.83;;;3.10;;
80776;SDS011;70169;51.262;6.336;2023-07-31T07:20:08;6.33;;;3.50;;
80776;SDS011;70169;51.262;6.336;2023-07-31T07:22:24;6.45;;;2.90;;
80776;SDS011;70169;51.262;6.336;2023-07-31T07:24:41;6.05;;;2.92;;
80776;SDS011;70169;51.262;6.336;2023-07-31T07:26:56;10.10;;;3.20;;
80776;SDS011;70169;51.262;6.336;2023-07-31T07:29:12;5.83;;;2.90;;
80776;SDS011;70169;51.262;6.336;2023-07-31T07:31:27;7.33;;;3.20;;
80776;SDS011;70169;51.262;6.336;2023-07-31T07:33:43;5.25;;;2.53;;
80776;SDS011;70169;51.262;6.336;2023-07-31T07:35:59;5.70;;;2.58;;
80776;SDS011;70169;51.262;6.336;2023-07-31T07:40:31;4.67;;;2.40;;
80776;SDS011;70169;51.262;6.336;2023-07-31T07:42:46;4.10;;;2.40;;
80776;SDS011;70169;51.262;6.336;2023-07-31T07:45:02;6.07;;;2.67;;
80776;SDS011;70169;51.262;6.336;2023-07-31T07:47:18;5.13;;;3.00;;
80776;SDS011;70169;51.262;6.336;2023-07-31T07:49:33;6.17;;;2.53;;
80776;SDS011;70169;51.262;6.336;2023-07-31T07:51:49;5.93;;;2.70;;
80776;SDS011;70169;51.262;6.336;2023-07-31T07:54:05;5.70;;;2.90;;
80776;SDS011;70169;51.262;6.336;2023-07-31T07:56:21;5.53;;;2.83;;
80776;SDS011;70169;51.262;6.336;2023-07-31T07:58:36;5.93;;;2.60;;
80776;SDS011;70169;51.262;6.336;2023-07-31T08:00:51;4.97;;;2.70;;
80776;SDS011;70169;51.262;6.336;2023-07-31T08:03:07;4.82;;;2.53;;
80776;SDS011;70169;51.262;6.336;2023-07-31T08:05:22;5.40;;;2.58;;
80776;SDS011;70169;51.262;6.336;2023-07-31T08:07:38;4.47;;;2.60;;
80776;SDS011;70169;51.262;6.336;2023-07-31T08:09:53;5.77;;;2.63;;
80776;SDS011;70169;51.262;6.336;2023-07-31T08:12:08;5.70;;;2.70;;
80776;SDS011;70169;51.262;6.336;2023-07-31T08:14:24;5.80;;;2.80;;
80776;SDS011;70169;51.262;6.336;2023-07-31T08:16:39;4.40;;;2.53;;
80776;SDS011;70169;51.262;6.336;2023-07-31T08:18:55;4.70;;;2.58;;
80776;SDS011;70169;51.262;6.336;2023-07-31T08:21:10;4.00;;;2.30;;
80776;SDS011;70169;51.262;6.336;2023-07-31T08:23:25;5.30;;;2.70;;
80776;SDS011;70169;51.262;6.336;2023-07-31T08:25:41;5.57;;;3.13;;
80776;SDS011;70169;51.262;6.336;2023-07-31T08:27:56;5.53;;;2.80;;
80776;SDS011;70169;51.262;6.336;2023-07-31T08:30:12;8.05;;;3.28;;
80776;SDS011;70169;51.262;6.336;2023-07-31T08:32:27;5.50;;;2.90;;
80776;SDS011;70169;51.262;6.336;2023-07-31T08:34:42;4.77;;;2.97;;
80776;SDS011;70169;51.262;6.336;2023-07-31T08:36:58;5.37;;;2.37;;
80776;SDS011;70169;51.262;6.336;2023-07-31T08:39:13;8.93;;;3.03;;
80776;SDS011;70169;51.262;6.336;2023-07-31T08:41:28;5.43;;;2.80;;
80776;SDS011;70169;51.262;6.336;2023-07-31T08:43:47;6.73;;;3.20;;
80776;SDS011;70169;51.262;6.336;2023-07-31T08:46:04;5.55;;;2.65;;
80776;SDS011;70169;51.262;6.336;2023-07-31T08:48:21;6.03;;;2.78;;
80776;SDS011;70169;51.262;6.336;2023-07-31T08:50:37;6.55;;;2.75;;
80776;SDS011;70169;51.262;6.336;2023-07-31T08:52:53;4.25;;;2.78;;
80776;SDS011;70169;51.262;6.336;2023-07-31T08:55:08;4.93;;;2.97;;
80776;SDS011;70169;51.262;6.336;2023-07-31T08:57:24;4.88;;;2.70;;
80776;SDS011;70169;51.262;6.336;2023-07-31T08:59:40;5.80;;;2.95;;
80776;SDS011;70169;51.262;6.336;2023-07-31T09:01:56;5.80;;;3.05;;
80776;SDS011;70169;51.262;6.336;2023-07-31T09:04:14;6.82;;;3.50;;
80776;SDS011;70169;51.262;6.336;2023-07-31T09:06:33;7.75;;;2.95;;
80776;SDS011;70169;51.262;6.336;2023-07-31T09:08:49;5.82;;;2.97;;
80776;SDS011;70169;51.262;6.336;2023-07-31T09:11:05;5.45;;;2.70;;
80776;SDS011;70169;51.262;6.336;2023-07-31T09:13:20;5.38;;;3.10;;
80776;SDS011;70169;51.262;6.336;2023-07-31T09:15:36;5.77;;;2.93;;
80776;SDS011;70169;51.262;6.336;2023-07-31T09:17:58;4.50;;;2.97;;
80776;SDS011;70169;51.262;6.336;2023-07-31T09:20:19;5.82;;;3.22;;
80776;SDS011;70169;51.262;6.336;2023-07-31T09:22:35;6.25;;;3.10;;
80776;SDS011;70169;51.262;6.336;2023-07-31T09:24:51;5.80;;;2.67;;
80776;SDS011;70169;51.262;6.336;2023-07-31T09:27:06;6.00;;;2.57;;
80776;SDS011;70169;51.262;6.336;2023-07-31T09:29:21;5.93;;;2.60;;
80776;SDS011;70169;51.262;6.336;2023-07-31T09:31:41;5.82;;;2.88;;
80776;SDS011;70169;51.262;6.336;2023-07-31T09:33:57;6.57;;;3.13;;
80776;SDS011;70169;51.262;6.336;2023-07-31T09:36:12;6.00;;;2.90;;
80776;SDS011;70169;51.262;6.336;2023-07-31T09:38:28;4.17;;;2.40;;
80776;SDS011;70169;51.262;6.336;2023-07-31T09:40:44;4.10;;;2.65;;
80776;SDS011;70169;51.262;6.336;2023-07-31T09:43:04;5.43;;;2.97;;
80776;SDS011;70169;51.262;6.336;2023-07-31T09:45:20;5.13;;;2.75;;
80776;SDS011;70169;51.262;6.336;2023-07-31T09:47:35;6.33;;;2.87;;
80776;SDS011;70169;51.262;6.336;2023-07-31T09:49:51;7.20;;;3.03;;
80776;SDS011;70169;51.262;6.336;2023-07-31T09:52:11;4.90;;;2.67;;
80776;SDS011;70169;51.262;6.336;2023-07-31T09:54:27;8.00;;;3.33;;
80776;SDS011;70169;51.262;6.336;2023-07-31T09:56:43;5.00;;;3.00;;
80776;SDS011;70169;51.262;6.336;2023-07-31T09:59:02;6.03;;;3.35;;
80776;SDS011;70169;51.262;6.336;2023-07-31T10:01:19;4.20;;;2.60;;
80776;SDS011;70169;51.262;6.336;2023-07-31T10:03:34;5.05;;;2.88;;
80776;SDS011;70169;51.262;6.336;2023-07-31T10:05:50;5.10;;;2.63;;
80776;SDS011;70169;51.262;6.336;2023-07-31T10:08:09;7.30;;;3.28;;
80776;SDS011;70169;51.262;6.336;2023-07-31T10:10:26;5.20;;;2.88;;
80776;SDS011;70169;51.262;6.336;2023-07-31T10:12:42;7.07;;;2.40;;
80776;SDS011;70169;51.262;6.336;2023-07-31T10:14:59;5.10;;;2.78;;
80776;SDS011;70169;51.262;6.336;2023-07-31T10:17:14;6.38;;;2.90;;
80776;SDS011;70169;51.262;6.336;2023-07-31T10:19:32;6.90;;;2.72;;
80776;SDS011;70169;51.262;6.336;2023-07-31T10:21:49;6.18;;;2.55;;
80776;SDS011;70169;51.262;6.336;2023-07-31T10:24:05;5.10;;;2.67;;
80776;SDS011;70169;51.262;6.336;2023-07-31T10:26:20;5.28;;;2.35;;
80776;SDS011;70169;51.262;6.336;2023-07-31T10:28:38;7.32;;;2.83;;
80776;SDS011;70169;51.262;6.336;2023-07-31T10:33:10;6.35;;;2.53;;
80776;SDS011;70169;51.262;6.336;2023-07-31T10:35:27;5.00;;;2.53;;
80776;SDS011;70169;51.262;6.336;2023-07-31T10:37:43;5.53;;;2.38;;
80776;SDS011;70169;51.262;6.336;2023-07-31T10:40:05;4.00;;;2.22;;
80776;SDS011;70169;51.262;6.336;2023-07-31T10:42:28;4.18;;;2.42;;
80776;SDS011;70169;51.262;6.336;2023-07-31T10:44:46;6.05;;;2.75;;
80776;SDS011;70169;51.262;6.336;2023-07-31T10:47:01;5.65;;;2.67;;
80776;SDS011;70169;51.262;6.336;2023-07-31T10:49:20;7.18;;;2.35;;
80776;SDS011;70169;51.262;6.336;2023-07-31T10:51:36;4.35;;;2.20;;
80776;SDS011;70169;51.262;6.336;2023-07-31T10:53:51;6.63;;;2.50;;
80776;SDS011;70169;51.262;6.336;2023-07-31T10:56:26;4.22;;;2.28;;
80776;SDS011;70169;51.262;6.336;2023-07-31T10:58:43;5.10;;;2.60;;
80776;SDS011;70169;51.262;6.336;2023-07-31T11:01:00;4.35;;;2.53;;
80776;SDS011;70169;51.262;6.336;2023-07-31T11:03:18;4.07;;;2.13;;
80776;SDS011;70169;51.262;6.336;2023-07-31T11:07:58;4.32;;;2.55;;
80776;SDS011;70169;51.262;6.336;2023-07-31T11:10:15;3.30;;;1.87;;
80776;SDS011;70169;51.262;6.336;2023-07-31T11:12:32;4.82;;;2.40;;
80776;SDS011;70169;51.262;6.336;2023-07-31T11:14:53;4.57;;;2.30;;
80776;SDS011;70169;51.262;6.336;2023-07-31T11:17:10;4.05;;;2.05;;
80776;SDS011;70169;51.262;6.336;2023-07-31T11:19:25;5.80;;;2.20;;
80776;SDS011;70169;51.262;6.336;2023-07-31T11:21:40;4.37;;;1.90;;
80776;SDS011;70169;51.262;6.336;2023-07-31T11:23:57;6.73;;;2.23;;
80776;SDS011;70169;51.262;6.336;2023-07-31T11:26:12;3.50;;;2.03;;
80776;SDS011;70169;51.262;6.336;2023-07-31T11:28:31;3.67;;;1.87;;
80776;SDS011;70169;51.262;6.336;2023-07-31T11:30:48;4.18;;;2.00;;
80776;SDS011;70169;51.262;6.336;2023-07-31T11:33:04;3.97;;;2.27;;
80776;SDS011;70169;51.262;6.336;2023-07-31T11:35:20;3.92;;;1.70;;
80776;SDS011;70169;51.262;6.336;2023-07-31T11:37:39;3.87;;;2.10;;
80776;SDS011;70169;51.262;6.336;2023-07-31T11:42:15;3.63;;;1.83;;
80776;SDS011;70169;51.262;6.336;2023-07-31T11:44:38;4.38;;;2.20;;
80776;SDS011;70169;51.262;6.336;2023-07-31T11:46:58;5.32;;;2.08;;
80776;SDS011;70169;51.262;6.336;2023-07-31T11:49:16;3.15;;;1.73;;
80776;SDS011;70169;51.262;6.336;2023-07-31T11:51:31;3.67;;;2.28;;
80776;SDS011;70169;51.262;6.336;2023-07-31T11:53:47;3.00;;;1.60;;
80776;SDS011;70169;51.262;6.336;2023-07-31T11:56:06;5.35;;;2.17;;
80776;SDS011;70169;51.262;6.336;2023-07-31T11:58:23;3.90;;;2.13;;
80776;SDS011;70169;51.262;6.336;2023-07-31T12:00:40;3.45;;;2.05;;
80776;SDS011;70169;51.262;6.336;2023-07-31T12:02:55;5.45;;;2.10;;
80776;SDS011;70169;51.262;6.336;2023-07-31T12:05:14;3.85;;;1.70;;
80776;SDS011;70169;51.262;6.336;2023-07-31T12:07:42;3.17;;;1.85;;
80776;SDS011;70169;51.262;6.336;2023-07-31T12:10:01;4.85;;;1.90;;
80776;SDS011;70169;51.262;6.336;2023-07-31T12:12:22;4.40;;;2.17;;
80776;SDS011;70169;51.262;6.336;2023-07-31T12:14:38;4.85;;;2.20;;
80776;SDS011;70169;51.262;6.336;2023-07-31T12:17:06;4.05;;;1.83;;
80776;SDS011;70169;51.262;6.336;2023-07-31T12:19:22;3.10;;;1.70;;
80776;SDS011;70169;51.262;6.336;2023-07-31T12:21:38;4.75;;;2.45;;
80776;SDS011;70169;51.262;6.336;2023-07-31T12:23:53;3.50;;;2.17;;
80776;SDS011;70169;51.262;6.336;2023-07-31T12:26:12;4.68;;;2.83;;
80776;SDS011;70169;51.262;6.336;2023-07-31T12:28:28;4.28;;;2.10;;
80776;SDS011;70169;51.262;6.336;2023-07-31T12:30:44;4.15;;;2.30;;
80776;SDS011;70169;51.262;6.336;2023-07-31T12:33:13;6.18;;;2.80;;
80776;SDS011;70169;51.262;6.336;2023-07-31T12:35:40;4.30;;;2.50;;
80776;SDS011;70169;51.262;6.336;2023-07-31T12:38:00;3.95;;;2.60;;
80776;SDS011;70169;51.262;6.336;2023-07-31T12:40:16;4.43;;;2.78;;
80776;SDS011;70169;51.262;6.336;2023-07-31T12:42:31;5.30;;;2.87;;
80776;SDS011;70169;51.262;6.336;2023-07-31T12:44:47;4.63;;;2.63;;
80776;SDS011;70169;51.262;6.336;2023-07-31T12:47:02;5.38;;;2.90;;
80776;SDS011;70169;51.262;6.336;2023-07-31T12:49:19;4.43;;;2.55;;
80776;SDS011;70169;51.262;6.336;2023-07-31T12:51:34;5.28;;;2.50;;
80776;SDS011;70169;51.262;6.336;2023-07-31T12:53:49;5.37;;;2.60;;
80776;SDS011;70169;51.262;6.336;2023-07-31T12:56:05;6.13;;;2.93;;
80776;SDS011;70169;51.262;6.336;2023-07-31T12:58:20;5.82;;;2.92;;
80776;SDS011;70169;51.262;6.336;2023-07-31T13:00:35;5.57;;;3.10;;
80776;SDS011;70169;51.262;6.336;2023-07-31T13:02:51;5.35;;;3.03;;
80776;SDS011;70169;51.262;6.336;2023-07-31T13:05:07;5.60;;;2.83;;
80776;SDS011;70169;51.262;6.336;2023-07-31T13:07:22;5.20;;;2.80;;
80776;SDS011;70169;51.262;6.336;2023-07-31T13:09:38;6.43;;;3.70;;
80776;SDS011;70169;51.262;6.336;2023-07-31T13:11:53;5.03;;;2.60;;
80776;SDS011;70169;51.262;6.336;2023-07-31T13:14:08;6.03;;;3.10;;
80776;SDS011;70169;51.262;6.336;2023-07-31T13:16:24;6.70;;;3.28;;
80776;SDS011;70169;51.262;6.336;2023-07-31T13:18:39;6.22;;;3.20;;
80776;SDS011;70169;51.262;6.336;2023-07-31T13:20:54;6.07;;;3.10;;
80776;SDS011;70169;51.262;6.336;2023-07-31T13:23:10;6.50;;;3.23;;
80776;SDS011;70169;51.262;6.336;2023-07-31T13:25:25;6.13;;;3.10;;
80776;SDS011;70169;51.262;6.336;2023-07-31T13:27:40;5.43;;;2.83;;
80776;SDS011;70169;51.262;6.336;2023-07-31T13:29:55;9.37;;;3.57;;
80776;SDS011;70169;51.262;6.336;2023-07-31T13:32:11;5.00;;;3.10;;
80776;SDS011;70169;51.262;6.336;2023-07-31T13:34:26;5.82;;;3.35;;
80776;SDS011;70169;51.262;6.336;2023-07-31T13:36:42;5.70;;;3.47;;
80776;SDS011;70169;51.262;6.336;2023-07-31T13:38:57;8.25;;;3.70;;
80776;SDS011;70169;51.262;6.336;2023-07-31T13:41:12;7.37;;;3.77;;
80776;SDS011;70169;51.262;6.336;2023-07-31T13:43:28;5.37;;;3.17;;
80776;SDS011;70169;51.262;6.336;2023-07-31T13:45:43;4.97;;;2.93;;
80776;SDS011;70169;51.262;6.336;2023-07-31T13:47:58;7.38;;;3.95;;
80776;SDS011;70169;51.262;6.336;2023-07-31T13:50:14;4.70;;;3.17;;
80776;SDS011;70169;51.262;6.336;2023-07-31T13:52:29;6.30;;;3.23;;
80776;SDS011;70169;51.262;6.336;2023-07-31T13:54:44;6.70;;;3.43;;
80776;SDS011;70169;51.262;6.336;2023-07-31T13:57:00;7.10;;;3.10;;
80776;SDS011;70169;51.262;6.336;2023-07-31T13:59:15;5.60;;;3.38;;
80776;SDS011;70169;51.262;6.336;2023-07-31T14:01:31;5.15;;;3.15;;
80776;SDS011;70169;51.262;6.336;2023-07-31T14:03:47;6.15;;;3.42;;